sensor_id;sensor_type;location;lat;lon;timestamp;temperature;humidity
14769;DHT22;7476;49.404;11.152;2023-04-24T00:01:20;9.70;99.90
14769;DHT22;7476;49.404;11.152;2023-04-24T00:03:47;9.70;99.90
14769;DHT22;7476;49.404;11.152;2023-04-24T00:06:13;9.70;99.90
14769;DHT22;7476;49.404;11.152;2023-04-24T00:08:43;9.70;99.90
14769;DHT22;7476;49.404;11.152;2023-04-24T00:11:10;9.70;99.90
14769;DHT22;7476;49.404;11.152;2023-04-24T00:13:37;9.70;99.90
14769;DHT22;7476;49.404;11.152;2023-04-24T00:16:04;9.70;99.90
14769;DHT22;7476;49.404;11.152;2023-04-24T00:18:31;9.70;99.90
14769;DHT22;7476;49.404;11.152;2023-04-24T00:20:57;9.70;99.90
14769;DHT22;7476;49.404;11.152;2023-04-24T00:23:24;9.70;99.90
14769;DHT22;7476;49.404;11.152;2023-04-24T00:25:52;9.70;99.90
14769;DHT22;7476;49.404;11.152;2023-04-24T00:28:19;9.60;99.90
14769;DHT22;7476;49.404;11.152;2023-04-24T00:30:45;9.60;99.90
14769;DHT22;7476;49.404;11.152;2023-04-24T00:33:12;9.70;99.90
14769;DHT22;7476;49.404;11.152;2023-04-24T00:35:39;9.60;99.90
14769;DHT22;7476;49.404;11.152;2023-04-24T00:38:06;9.60;99.90
14769;DHT22;7476;49.404;11.152;2023-04-24T00:40:32;9.60;99.90
14769;DHT22;7476;49.404;11.152;2023-04-24T00:43:00;9.70;99.90
14769;DHT22;7476;49.404;11.152;2023-04-24T00:45:27;9.70;99.90
14769;DHT22;7476;49.404;11.152;2023-04-24T00:47:56;9.70;99.90
14769;DHT22;7476;49.404;11.152;2023-04-24T00:50:24;9.60;99.90
14769;DHT22;7476;49.404;11.152;2023-04-24T00:52:50;9.60;99.90
14769;DHT22;7476;49.404;11.152;2023-04-24T00:55:18;9.60;99.90
14769;DHT22;7476;49.404;11.152;2023-04-24T00:57:45;9.60;99.90
14769;DHT22;7476;49.404;11.152;2023-04-24T01:00:16;9.50;99.90
14769;DHT22;7476;49.404;11.152;2023-04-24T01:02:44;9.50;99.90
14769;DHT22;7476;49.404;11.152;2023-04-24T01:05:12;9.40;99.90
14769;DHT22;7476;49.404;11.152;2023-04-24T01:07:41;9.40;99.90
14769;DHT22;7476;49.404;11.152;2023-04-24T01:10:11;9.40;99.90
14769;DHT22;7476;49.404;11.152;2023-04-24T01:12:39;9.30;99.90
14769;DHT22;7476;49.404;11.152;2023-04-24T01:15:06;9.30;99.90
14769;DHT22;7476;49.404;11.152;2023-04-24T01:17:35;9.30;99.90
14769;DHT22;7476;49.404;11.152;2023-04-24T01:20:02;9.30;99.90
14769;DHT22;7476;49.404;11.152;2023-04-24T01:22:33;9.30;99.90
14769;DHT22;7476;49.404;11.152;2023-04-24T01:24:59;9.20;99.90
14769;DHT22;7476;49.404;11.152;2023-04-24T01:27:26;9.20;99.90
14769;DHT22;7476;49.404;11.152;2023-04-24T01:29:53;9.10;99.90
14769;DHT22;7476;49.404;11.152;2023-04-24T01:32:20;9.00;99.90
14769;DHT22;7476;49.404;11.152;2023-04-24T01:34:47;9.00;99.90
14769;DHT22;7476;49.404;11.152;2023-04-24T01:37:14;9.00;99.90
14769;DHT22;7476;49.404;11.152;2023-04-24T01:39:42;9.00;99.90
14769;DHT22;7476;49.404;11.152;2023-04-24T01:42:09;9.00;99.90
14769;DHT22;7476;49.404;11.152;2023-04-24T01:44:36;8.90;99.90
14769;DHT22;7476;49.404;11.152;2023-04-24T01:47:03;8.90;99.90
14769;DHT22;7476;49.404;11.152;2023-04-24T01:49:29;8.90;99.90
14769;DHT22;7476;49.404;11.152;2023-04-24T01:51:56;8.90;99.90
14769;DHT22;7476;49.404;11.152;2023-04-24T01:54:23;9.00;99.90
14769;DHT22;7476;49.404;11.152;2023-04-24T01:56:51;9.10;99.90
14769;DHT22;7476;49.404;11.152;2023-04-24T01:59:17;9.20;99.90
14769;DHT22;7476;49.404;11.152;2023-04-24T02:01:45;9.30;99.90
14769;DHT22;7476;49.404;11.152;2023-04-24T02:04:11;9.30;99.90
14769;DHT22;7476;49.404;11.152;2023-04-24T02:06:38;9.40;99.90
14769;DHT22;7476;49.404;11.152;2023-04-24T02:09:05;9.40;99.90
14769;DHT22;7476;49.404;11.152;2023-04-24T02:11:33;9.40;99.90
14769;DHT22;7476;49.404;11.152;2023-04-24T02:14:01;9.40;99.90
14769;DHT22;7476;49.404;11.152;2023-04-24T02:16:28;9.40;99.90
14769;DHT22;7476;49.404;11.152;2023-04-24T02:18:57;9.30;99.90
14769;DHT22;7476;49.404;11.152;2023-04-24T02:21:24;9.30;99.90
14769;DHT22;7476;49.404;11.152;2023-04-24T02:23:50;9.10;99.90
14769;DHT22;7476;49.404;11.152;2023-04-24T02:26:17;9.10;99.90
14769;DHT22;7476;49.404;11.152;2023-04-24T02:28:44;9.00;99.90
14769;DHT22;7476;49.404;11.152;2023-04-24T02:31:12;9.00;99.90
14769;DHT22;7476;49.404;11.152;2023-04-24T02:33:38;8.90;99.90
14769;DHT22;7476;49.404;11.152;2023-04-24T02:36:05;8.90;99.90
14769;DHT22;7476;49.404;11.152;2023-04-24T02:38:32;8.80;99.90
14769;DHT22;7476;49.404;11.152;2023-04-24T02:40:59;8.80;99.90
14769;DHT22;7476;49.404;11.152;2023-04-24T02:43:26;8.90;99.90
14769;DHT22;7476;49.404;11.152;2023-04-24T02:45:52;8.90;99.90
14769;DHT22;7476;49.404;11.152;2023-04-24T02:48:20;8.80;99.90
14769;DHT22;7476;49.404;11.152;2023-04-24T02:50:47;8.80;99.90
14769;DHT22;7476;49.404;11.152;2023-04-24T02:53:13;8.80;99.90
14769;DHT22;7476;49.404;11.152;2023-04-24T02:55:40;8.80;99.90
14769;DHT22;7476;49.404;11.152;2023-04-24T02:58:07;8.70;99.90
14769;DHT22;7476;49.404;11.152;2023-04-24T03:00:33;8.70;99.90
14769;DHT22;7476;49.404;11.152;2023-04-24T03:03:00;8.80;99.90
14769;DHT22;7476;49.404;11.152;2023-04-24T03:05:29;8.80;99.90
14769;DHT22;7476;49.404;11.152;2023-04-24T03:07:56;8.80;99.90
14769;DHT22;7476;49.404;11.152;2023-04-24T03:10:23;8.80;99.90
14769;DHT22;7476;49.404;11.152;2023-04-24T03:12:49;8.80;99.90
14769;DHT22;7476;49.404;11.152;2023-04-24T03:15:16;8.80;99.90
14769;DHT22;7476;49.404;11.152;2023-04-24T03:17:43;8.80;99.90
14769;DHT22;7476;49.404;11.152;2023-04-24T03:20:10;8.80;99.90
14769;DHT22;7476;49.404;11.152;2023-04-24T03:22:38;8.80;99.90
14769;DHT22;7476;49.404;11.152;2023-04-24T03:25:05;8.90;99.90
14769;DHT22;7476;49.404;11.152;2023-04-24T03:27:33;8.90;99.90
14769;DHT22;7476;49.404;11.152;2023-04-24T03:30:00;8.90;99.90
14769;DHT22;7476;49.404;11.152;2023-04-24T03:32:27;9.00;99.90
14769;DHT22;7476;49.404;11.152;2023-04-24T03:34:54;9.00;99.90
14769;DHT22;7476;49.404;11.152;2023-04-24T03:37:20;9.00;99.90
14769;DHT22;7476;49.404;11.152;2023-04-24T03:39:48;8.90;99.90
14769;DHT22;7476;49.404;11.152;2023-04-24T03:42:15;8.90;99.90
14769;DHT22;7476;49.404;11.152;2023-04-24T03:44:41;9.00;99.90
14769;DHT22;7476;49.404;11.152;2023-04-24T03:47:08;9.00;99.90
14769;DHT22;7476;49.404;11.152;2023-04-24T03:49:35;8.90;99.90
14769;DHT22;7476;49.404;11.152;2023-04-24T03:52:02;8.90;99.90
14769;DHT22;7476;49.404;11.152;2023-04-24T03:54:28;8.90;99.90
14769;DHT22;7476;49.404;11.152;2023-04-24T03:56:56;8.80;99.90
14769;DHT22;7476;49.404;11.152;2023-04-24T03:59:23;8.80;99.90
14769;DHT22;7476;49.404;11.152;2023-04-24T04:01:50;8.80;99.90
14769;DHT22;7476;49.404;11.152;2023-04-24T04:04:16;8.80;99.90
14769;DHT22;7476;49.404;11.152;2023-04-24T04:06:43;8.90;99.90
14769;DHT22;7476;49.404;11.152;2023-04-24T04:09:11;8.90;99.90
14769;DHT22;7476;49.404;11.152;2023-04-24T04:11:38;8.90;99.90
14769;DHT22;7476;49.404;11.152;2023-04-24T04:14:06;8.90;99.90
14769;DHT22;7476;49.404;11.152;2023-04-24T04:16:32;8.80;99.90
14769;DHT22;7476;49.404;11.152;2023-04-24T04:18:59;8.90;99.90
14769;DHT22;7476;49.404;11.152;2023-04-24T04:21:26;8.90;99.90
14769;DHT22;7476;49.404;11.152;2023-04-24T04:23:53;8.90;99.90
14769;DHT22;7476;49.404;11.152;2023-04-24T04:26:20;8.90;99.90
14769;DHT22;7476;49.404;11.152;2023-04-24T04:28:50;8.90;99.90
14769;DHT22;7476;49.404;11.152;2023-04-24T04:31:19;9.00;99.90
14769;DHT22;7476;49.404;11.152;2023-04-24T04:33:46;9.00;99.90
14769;DHT22;7476;49.404;11.152;2023-04-24T04:36:13;9.10;99.90
14769;DHT22;7476;49.404;11.152;2023-04-24T04:38:39;9.10;99.90
14769;DHT22;7476;49.404;11.152;2023-04-24T04:41:08;9.10;99.90
14769;DHT22;7476;49.404;11.152;2023-04-24T04:43:35;9.10;99.90
14769;DHT22;7476;49.404;11.152;2023-04-24T04:46:01;9.20;99.90
14769;DHT22;7476;49.404;11.152;2023-04-24T04:48:30;9.20;99.90
14769;DHT22;7476;49.404;11.152;2023-04-24T04:50:57;9.20;99.90
14769;DHT22;7476;49.404;11.152;2023-04-24T04:53:23;9.20;99.90
14769;DHT22;7476;49.404;11.152;2023-04-24T04:55:50;9.20;99.90
14769;DHT22;7476;49.404;11.152;2023-04-24T04:58:17;9.30;99.90
14769;DHT22;7476;49.404;11.152;2023-04-24T05:00:43;9.30;99.90
14769;DHT22;7476;49.404;11.152;2023-04-24T05:03:10;9.30;99.90
14769;DHT22;7476;49.404;11.152;2023-04-24T05:05:38;9.30;99.90
14769;DHT22;7476;49.404;11.152;2023-04-24T05:08:06;9.30;99.90
14769;DHT22;7476;49.404;11.152;2023-04-24T05:10:33;9.40;99.90
14769;DHT22;7476;49.404;11.152;2023-04-24T05:13:00;9.40;99.90
14769;DHT22;7476;49.404;11.152;2023-04-24T05:15:26;9.50;99.90
14769;DHT22;7476;49.404;11.152;2023-04-24T05:17:53;9.60;99.90
14769;DHT22;7476;49.404;11.152;2023-04-24T05:20:20;9.60;99.90
14769;DHT22;7476;49.404;11.152;2023-04-24T05:22:47;9.60;99.90
14769;DHT22;7476;49.404;11.152;2023-04-24T05:25:14;9.60;99.90
14769;DHT22;7476;49.404;11.152;2023-04-24T05:27:41;9.70;99.90
14769;DHT22;7476;49.404;11.152;2023-04-24T05:30:08;9.80;99.90
14769;DHT22;7476;49.404;11.152;2023-04-24T05:32:35;9.80;99.90
14769;DHT22;7476;49.404;11.152;2023-04-24T05:35:02;9.80;99.90
14769;DHT22;7476;49.404;11.152;2023-04-24T05:37:29;9.80;99.90
14769;DHT22;7476;49.404;11.152;2023-04-24T05:39:57;9.90;99.90
14769;DHT22;7476;49.404;11.152;2023-04-24T05:42:24;9.90;99.90
14769;DHT22;7476;49.404;11.152;2023-04-24T05:44:50;10.00;99.90
14769;DHT22;7476;49.404;11.152;2023-04-24T05:47:19;10.00;99.90
14769;DHT22;7476;49.404;11.152;2023-04-24T05:49:47;10.10;99.90
14769;DHT22;7476;49.404;11.152;2023-04-24T05:52:13;10.10;99.90
14769;DHT22;7476;49.404;11.152;2023-04-24T05:54:40;10.20;99.90
14769;DHT22;7476;49.404;11.152;2023-04-24T05:57:08;10.20;99.90
14769;DHT22;7476;49.404;11.152;2023-04-24T05:59:36;10.30;99.90
14769;DHT22;7476;49.404;11.152;2023-04-24T06:02:03;10.30;99.90
14769;DHT22;7476;49.404;11.152;2023-04-24T06:04:31;10.30;99.90
14769;DHT22;7476;49.404;11.152;2023-04-24T06:06:57;10.40;99.90
14769;DHT22;7476;49.404;11.152;2023-04-24T06:09:24;10.50;99.90
14769;DHT22;7476;49.404;11.152;2023-04-24T06:11:51;10.70;99.90
14769;DHT22;7476;49.404;11.152;2023-04-24T06:14:20;10.70;99.90
14769;DHT22;7476;49.404;11.152;2023-04-24T06:16:46;10.90;99.90
14769;DHT22;7476;49.404;11.152;2023-04-24T06:19:13;10.90;99.90
14769;DHT22;7476;49.404;11.152;2023-04-24T06:21:40;11.00;99.90
14769;DHT22;7476;49.404;11.152;2023-04-24T06:24:06;11.20;99.90
14769;DHT22;7476;49.404;11.152;2023-04-24T06:26:33;11.30;99.90
14769;DHT22;7476;49.404;11.152;2023-04-24T06:29:00;11.40;99.90
14769;DHT22;7476;49.404;11.152;2023-04-24T06:31:28;11.40;99.90
14769;DHT22;7476;49.404;11.152;2023-04-24T06:33:54;11.40;99.90
14769;DHT22;7476;49.404;11.152;2023-04-24T06:36:21;11.50;99.90
14769;DHT22;7476;49.404;11.152;2023-04-24T06:38:48;11.60;99.90
14769;DHT22;7476;49.404;11.152;2023-04-24T06:41:15;11.70;99.90
14769;DHT22;7476;49.404;11.152;2023-04-24T06:43:41;11.70;99.90
14769;DHT22;7476;49.404;11.152;2023-04-24T06:46:08;11.80;99.90
14769;DHT22;7476;49.404;11.152;2023-04-24T06:48:36;11.90;99.90
14769;DHT22;7476;49.404;11.152;2023-04-24T06:51:02;11.90;99.90
14769;DHT22;7476;49.404;11.152;2023-04-24T06:53:29;11.80;99.90
14769;DHT22;7476;49.404;11.152;2023-04-24T06:55:56;11.60;99.90
14769;DHT22;7476;49.404;11.152;2023-04-24T06:58:23;11.40;99.90
14769;DHT22;7476;49.404;11.152;2023-04-24T07:00:50;11.40;99.90
14769;DHT22;7476;49.404;11.152;2023-04-24T07:03:17;11.50;99.90
14769;DHT22;7476;49.404;11.152;2023-04-24T07:05:45;11.50;99.90
14769;DHT22;7476;49.404;11.152;2023-04-24T07:08:11;11.80;99.90
14769;DHT22;7476;49.404;11.152;2023-04-24T07:10:39;12.00;99.90
14769;DHT22;7476;49.404;11.152;2023-04-24T07:13:05;12.10;99.90
14769;DHT22;7476;49.404;11.152;2023-04-24T07:15:32;12.30;99.90
14769;DHT22;7476;49.404;11.152;2023-04-24T07:17:59;12.50;99.90
14769;DHT22;7476;49.404;11.152;2023-04-24T07:20:26;12.50;99.90
14769;DHT22;7476;49.404;11.152;2023-04-24T07:22:54;12.60;99.90
14769;DHT22;7476;49.404;11.152;2023-04-24T07:25:20;12.60;99.90
14769;DHT22;7476;49.404;11.152;2023-04-24T07:27:47;12.70;99.90
14769;DHT22;7476;49.404;11.152;2023-04-24T07:30:14;12.60;99.90
14769;DHT22;7476;49.404;11.152;2023-04-24T07:32:41;12.80;99.90
14769;DHT22;7476;49.404;11.152;2023-04-24T07:35:08;12.90;99.90
14769;DHT22;7476;49.404;11.152;2023-04-24T07:37:35;12.90;99.90
14769;DHT22;7476;49.404;11.152;2023-04-24T07:40:04;12.60;99.90
14769;DHT22;7476;49.404;11.152;2023-04-24T07:42:31;12.40;99.90
14769;DHT22;7476;49.404;11.152;2023-04-24T07:44:59;12.30;99.90
14769;DHT22;7476;49.404;11.152;2023-04-24T07:47:26;12.30;99.90
14769;DHT22;7476;49.404;11.152;2023-04-24T07:49:53;12.20;99.90
14769;DHT22;7476;49.404;11.152;2023-04-24T07:52:19;12.20;99.90
14769;DHT22;7476;49.404;11.152;2023-04-24T07:54:46;12.10;99.90
14769;DHT22;7476;49.404;11.152;2023-04-24T07:57:14;12.10;99.90
14769;DHT22;7476;49.404;11.152;2023-04-24T07:59:41;12.10;99.90
14769;DHT22;7476;49.404;11.152;2023-04-24T08:02:08;12.20;99.90
14769;DHT22;7476;49.404;11.152;2023-04-24T08:04:35;12.30;99.90
14769;DHT22;7476;49.404;11.152;2023-04-24T08:07:01;12.50;99.90
14769;DHT22;7476;49.404;11.152;2023-04-24T08:09:28;12.50;99.90
14769;DHT22;7476;49.404;11.152;2023-04-24T08:11:55;12.50;99.90
14769;DHT22;7476;49.404;11.152;2023-04-24T08:14:23;12.90;99.90
14769;DHT22;7476;49.404;11.152;2023-04-24T08:16:50;13.40;99.90
14769;DHT22;7476;49.404;11.152;2023-04-24T08:19:16;13.50;99.90
14769;DHT22;7476;49.404;11.152;2023-04-24T08:21:43;13.30;99.90
14769;DHT22;7476;49.404;11.152;2023-04-24T08:24:09;13.10;99.90
14769;DHT22;7476;49.404;11.152;2023-04-24T08:26:36;13.20;99.90
14769;DHT22;7476;49.404;11.152;2023-04-24T08:29:03;13.20;99.90
14769;DHT22;7476;49.404;11.152;2023-04-24T08:31:31;13.20;99.90
14769;DHT22;7476;49.404;11.152;2023-04-24T08:33:57;13.10;99.90
14769;DHT22;7476;49.404;11.152;2023-04-24T08:36:25;13.10;99.90
14769;DHT22;7476;49.404;11.152;2023-04-24T08:38:52;13.00;99.90
14769;DHT22;7476;49.404;11.152;2023-04-24T08:41:19;12.90;99.90
14769;DHT22;7476;49.404;11.152;2023-04-24T08:43:46;12.80;99.90
14769;DHT22;7476;49.404;11.152;2023-04-24T08:46:15;12.60;99.90
14769;DHT22;7476;49.404;11.152;2023-04-24T08:48:44;12.50;99.90
14769;DHT22;7476;49.404;11.152;2023-04-24T08:51:11;13.00;99.90
14769;DHT22;7476;49.404;11.152;2023-04-24T08:53:40;14.20;99.90
14769;DHT22;7476;49.404;11.152;2023-04-24T08:56:07;15.10;99.90
14769;DHT22;7476;49.404;11.152;2023-04-24T08:58:33;15.00;99.90
14769;DHT22;7476;49.404;11.152;2023-04-24T09:01:01;14.40;99.90
14769;DHT22;7476;49.404;11.152;2023-04-24T09:03:29;14.00;99.90
14769;DHT22;7476;49.404;11.152;2023-04-24T09:05:58;14.10;99.90
14769;DHT22;7476;49.404;11.152;2023-04-24T09:08:26;14.40;99.90
14769;DHT22;7476;49.404;11.152;2023-04-24T09:10:54;14.60;99.90
14769;DHT22;7476;49.404;11.152;2023-04-24T09:13:23;14.60;99.90
14769;DHT22;7476;49.404;11.152;2023-04-24T09:15:50;14.60;99.90
14769;DHT22;7476;49.404;11.152;2023-04-24T09:18:17;14.60;99.90
14769;DHT22;7476;49.404;11.152;2023-04-24T09:21:03;14.50;99.90
14769;DHT22;7476;49.404;11.152;2023-04-24T09:23:31;13.90;99.90
14769;DHT22;7476;49.404;11.152;2023-04-24T09:25:59;13.80;99.90
14769;DHT22;7476;49.404;11.152;2023-04-24T09:28:27;14.00;99.90
14769;DHT22;7476;49.404;11.152;2023-04-24T09:31:06;14.30;99.90
14769;DHT22;7476;49.404;11.152;2023-04-24T09:33:32;14.60;99.90
14769;DHT22;7476;49.404;11.152;2023-04-24T09:36:01;14.90;99.90
14769;DHT22;7476;49.404;11.152;2023-04-24T09:38:33;14.30;99.90
14769;DHT22;7476;49.404;11.152;2023-04-24T09:41:00;13.70;99.90
14769;DHT22;7476;49.404;11.152;2023-04-24T09:43:28;13.50;99.90
14769;DHT22;7476;49.404;11.152;2023-04-24T09:45:56;12.90;99.90
14769;DHT22;7476;49.404;11.152;2023-04-24T09:48:30;12.70;99.90
14769;DHT22;7476;49.404;11.152;2023-04-24T09:50:57;12.60;99.90
14769;DHT22;7476;49.404;11.152;2023-04-24T09:53:25;12.80;99.90
14769;DHT22;7476;49.404;11.152;2023-04-24T09:55:52;13.10;99.90
14769;DHT22;7476;49.404;11.152;2023-04-24T09:58:24;13.70;99.90
14769;DHT22;7476;49.404;11.152;2023-04-24T10:00:54;13.90;99.90
14769;DHT22;7476;49.404;11.152;2023-04-24T10:03:24;13.90;99.90
14769;DHT22;7476;49.404;11.152;2023-04-24T10:05:51;13.80;99.90
14769;DHT22;7476;49.404;11.152;2023-04-24T10:08:18;13.50;99.90
14769;DHT22;7476;49.404;11.152;2023-04-24T10:10:46;13.30;99.90
14769;DHT22;7476;49.404;11.152;2023-04-24T10:13:14;13.10;99.90
14769;DHT22;7476;49.404;11.152;2023-04-24T10:15:41;13.10;99.90
14769;DHT22;7476;49.404;11.152;2023-04-24T10:18:09;13.20;99.90
14769;DHT22;7476;49.404;11.152;2023-04-24T10:20:38;13.50;99.90
14769;DHT22;7476;49.404;11.152;2023-04-24T10:23:05;13.70;99.90
14769;DHT22;7476;49.404;11.152;2023-04-24T10:25:33;14.00;99.90
14769;DHT22;7476;49.404;11.152;2023-04-24T10:28:02;14.30;99.90
14769;DHT22;7476;49.404;11.152;2023-04-24T10:30:30;14.50;99.90
14769;DHT22;7476;49.404;11.152;2023-04-24T10:33:00;14.60;99.90
14769;DHT22;7476;49.404;11.152;2023-04-24T10:35:30;14.70;99.90
14769;DHT22;7476;49.404;11.152;2023-04-24T10:37:59;14.60;99.90
14769;DHT22;7476;49.404;11.152;2023-04-24T10:40:30;14.30;99.90
14769;DHT22;7476;49.404;11.152;2023-04-24T10:42:57;14.10;99.90
14769;DHT22;7476;49.404;11.152;2023-04-24T10:45:25;14.10;99.90
14769;DHT22;7476;49.404;11.152;2023-04-24T10:47:54;14.20;99.90
14769;DHT22;7476;49.404;11.152;2023-04-24T10:50:22;14.60;99.90
14769;DHT22;7476;49.404;11.152;2023-04-24T10:52:49;14.80;99.90
14769;DHT22;7476;49.404;11.152;2023-04-24T10:55:39;14.60;99.90
14769;DHT22;7476;49.404;11.152;2023-04-24T10:58:07;15.10;99.90
14769;DHT22;7476;49.404;11.152;2023-04-24T11:00:36;15.30;99.90
14769;DHT22;7476;49.404;11.152;2023-04-24T11:03:04;14.80;99.90
14769;DHT22;7476;49.404;11.152;2023-04-24T11:05:55;14.30;99.90
14769;DHT22;7476;49.404;11.152;2023-04-24T11:08:42;13.60;99.90
14769;DHT22;7476;49.404;11.152;2023-04-24T11:11:10;12.80;99.90
14769;DHT22;7476;49.404;11.152;2023-04-24T11:14:08;12.50;99.90
14769;DHT22;7476;49.404;11.152;2023-04-24T11:16:51;12.40;99.90
14769;DHT22;7476;49.404;11.152;2023-04-24T11:19:21;12.40;99.90
14769;DHT22;7476;49.404;11.152;2023-04-24T11:21:55;12.50;99.90
14769;DHT22;7476;49.404;11.152;2023-04-24T11:24:30;12.80;99.90
14769;DHT22;7476;49.404;11.152;2023-04-24T11:26:59;13.10;99.90
14769;DHT22;7476;49.404;11.152;2023-04-24T11:29:43;13.10;99.90
14769;DHT22;7476;49.404;11.152;2023-04-24T11:32:23;13.30;99.90
14769;DHT22;7476;49.404;11.152;2023-04-24T11:34:51;13.30;99.90
14769;DHT22;7476;49.404;11.152;2023-04-24T11:37:18;13.30;99.90
14769;DHT22;7476;49.404;11.152;2023-04-24T11:39:45;13.50;99.90
14769;DHT22;7476;49.404;11.152;2023-04-24T11:42:14;14.00;99.90
14769;DHT22;7476;49.404;11.152;2023-04-24T11:44:41;14.60;99.90
14769;DHT22;7476;49.404;11.152;2023-04-24T11:47:08;14.70;99.90
14769;DHT22;7476;49.404;11.152;2023-04-24T11:49:38;15.10;99.90
14769;DHT22;7476;49.404;11.152;2023-04-24T11:52:05;15.40;99.90
14769;DHT22;7476;49.404;11.152;2023-04-24T11:54:32;15.30;99.90
14769;DHT22;7476;49.404;11.152;2023-04-24T11:56:58;14.40;99.90
14769;DHT22;7476;49.404;11.152;2023-04-24T11:59:25;13.80;99.90
14769;DHT22;7476;49.404;11.152;2023-04-24T12:01:52;13.50;99.90
14769;DHT22;7476;49.404;11.152;2023-04-24T12:04:18;13.40;99.90
14769;DHT22;7476;49.404;11.152;2023-04-24T12:07:02;13.20;99.90
14769;DHT22;7476;49.404;11.152;2023-04-24T12:09:29;13.10;99.90
14769;DHT22;7476;49.404;11.152;2023-04-24T12:12:06;13.10;99.90
14769;DHT22;7476;49.404;11.152;2023-04-24T12:14:33;12.80;99.90
14769;DHT22;7476;49.404;11.152;2023-04-24T12:17:07;13.00;99.90
14769;DHT22;7476;49.404;11.152;2023-04-24T12:19:34;13.40;99.90
14769;DHT22;7476;49.404;11.152;2023-04-24T12:22:04;13.70;99.90
14769;DHT22;7476;49.404;11.152;2023-04-24T12:24:31;14.00;99.90
14769;DHT22;7476;49.404;11.152;2023-04-24T12:26:58;14.10;99.90
14769;DHT22;7476;49.404;11.152;2023-04-24T12:29:26;14.20;99.90
14769;DHT22;7476;49.404;11.152;2023-04-24T12:31:54;14.40;99.90
14769;DHT22;7476;49.404;11.152;2023-04-24T12:34:21;14.60;99.90
14769;DHT22;7476;49.404;11.152;2023-04-24T12:36:49;14.90;99.90
14769;DHT22;7476;49.404;11.152;2023-04-24T12:39:17;15.10;99.90
14769;DHT22;7476;49.404;11.152;2023-04-24T12:41:54;15.00;99.90
14769;DHT22;7476;49.404;11.152;2023-04-24T12:44:29;14.00;99.90
14769;DHT22;7476;49.404;11.152;2023-04-24T12:46:55;13.80;99.90
14769;DHT22;7476;49.404;11.152;2023-04-24T12:49:22;13.90;99.90
14769;DHT22;7476;49.404;11.152;2023-04-24T12:51:49;13.80;99.90
14769;DHT22;7476;49.404;11.152;2023-04-24T12:54:17;14.00;99.90
14769;DHT22;7476;49.404;11.152;2023-04-24T12:56:43;13.90;99.90
14769;DHT22;7476;49.404;11.152;2023-04-24T12:59:10;13.80;99.90
14769;DHT22;7476;49.404;11.152;2023-04-24T13:01:37;13.70;99.90
14769;DHT22;7476;49.404;11.152;2023-04-24T13:04:04;13.60;99.90
14769;DHT22;7476;49.404;11.152;2023-04-24T13:06:31;13.50;99.90
14769;DHT22;7476;49.404;11.152;2023-04-24T13:08:58;13.50;99.90
14769;DHT22;7476;49.404;11.152;2023-04-24T13:11:26;13.80;99.90
14769;DHT22;7476;49.404;11.152;2023-04-24T13:13:52;14.50;99.90
14769;DHT22;7476;49.404;11.152;2023-04-24T13:16:19;15.30;99.90
14769;DHT22;7476;49.404;11.152;2023-04-24T13:18:46;16.50;99.90
14769;DHT22;7476;49.404;11.152;2023-04-24T13:21:12;16.40;99.90
14769;DHT22;7476;49.404;11.152;2023-04-24T13:23:39;16.10;99.90
14769;DHT22;7476;49.404;11.152;2023-04-24T13:26:06;15.60;99.90
14769;DHT22;7476;49.404;11.152;2023-04-24T13:28:34;15.40;99.90
14769;DHT22;7476;49.404;11.152;2023-04-24T13:31:01;15.00;99.90
14769;DHT22;7476;49.404;11.152;2023-04-24T13:33:27;14.50;99.90
14769;DHT22;7476;49.404;11.152;2023-04-24T13:35:54;13.80;99.90
14769;DHT22;7476;49.404;11.152;2023-04-24T13:38:21;13.60;99.90
14769;DHT22;7476;49.404;11.152;2023-04-24T13:40:47;13.10;99.90
14769;DHT22;7476;49.404;11.152;2023-04-24T13:43:14;13.10;99.90
14769;DHT22;7476;49.404;11.152;2023-04-24T13:45:42;13.00;99.90
14769;DHT22;7476;49.404;11.152;2023-04-24T13:48:09;13.00;99.90
14769;DHT22;7476;49.404;11.152;2023-04-24T13:50:35;13.00;99.90
14769;DHT22;7476;49.404;11.152;2023-04-24T13:53:02;13.10;99.90
14769;DHT22;7476;49.404;11.152;2023-04-24T13:55:29;13.30;99.90
14769;DHT22;7476;49.404;11.152;2023-04-24T13:57:56;13.30;99.90
14769;DHT22;7476;49.404;11.152;2023-04-24T14:00:23;12.70;99.90
14769;DHT22;7476;49.404;11.152;2023-04-24T14:02:51;12.40;99.90
14769;DHT22;7476;49.404;11.152;2023-04-24T14:05:18;12.30;99.90
14769;DHT22;7476;49.404;11.152;2023-04-24T14:07:44;12.30;99.90
14769;DHT22;7476;49.404;11.152;2023-04-24T14:10:11;12.40;99.90
14769;DHT22;7476;49.404;11.152;2023-04-24T14:12:38;12.50;99.90
14769;DHT22;7476;49.404;11.152;2023-04-24T14:15:05;12.50;99.90
14769;DHT22;7476;49.404;11.152;2023-04-24T14:17:32;12.80;99.90
14769;DHT22;7476;49.404;11.152;2023-04-24T14:20:00;13.40;99.90
14769;DHT22;7476;49.404;11.152;2023-04-24T14:22:27;15.00;99.90
14769;DHT22;7476;49.404;11.152;2023-04-24T14:24:53;16.60;99.90
14769;DHT22;7476;49.404;11.152;2023-04-24T14:27:20;15.90;99.90
14769;DHT22;7476;49.404;11.152;2023-04-24T14:29:46;15.80;99.90
14769;DHT22;7476;49.404;11.152;2023-04-24T14:32:13;16.30;99.90
14769;DHT22;7476;49.404;11.152;2023-04-24T14:34:40;17.20;99.90
14769;DHT22;7476;49.404;11.152;2023-04-24T14:37:08;17.00;99.90
14769;DHT22;7476;49.404;11.152;2023-04-24T14:39:35;16.60;99.90
14769;DHT22;7476;49.404;11.152;2023-04-24T14:42:02;15.80;99.90
14769;DHT22;7476;49.404;11.152;2023-04-24T14:44:28;15.20;99.90
14769;DHT22;7476;49.404;11.152;2023-04-24T14:46:55;14.40;99.90
14769;DHT22;7476;49.404;11.152;2023-04-24T14:49:22;13.60;99.90
14769;DHT22;7476;49.404;11.152;2023-04-24T14:51:49;13.30;99.90
14769;DHT22;7476;49.404;11.152;2023-04-24T14:54:17;13.10;99.90
14769;DHT22;7476;49.404;11.152;2023-04-24T14:56:45;13.10;99.90
14769;DHT22;7476;49.404;11.152;2023-04-24T14:59:11;13.10;99.90
14769;DHT22;7476;49.404;11.152;2023-04-24T15:01:38;12.80;99.90
14769;DHT22;7476;49.404;11.152;2023-04-24T15:04:05;12.70;99.90
14769;DHT22;7476;49.404;11.152;2023-04-24T15:06:31;12.80;99.90
14769;DHT22;7476;49.404;11.152;2023-04-24T15:08:58;12.90;99.90
14769;DHT22;7476;49.404;11.152;2023-04-24T15:11:26;12.90;99.90
14769;DHT22;7476;49.404;11.152;2023-04-24T15:13:55;13.20;99.90
14769;DHT22;7476;49.404;11.152;2023-04-24T15:16:23;13.90;99.90
14769;DHT22;7476;49.404;11.152;2023-04-24T15:18:50;15.80;99.90
14769;DHT22;7476;49.404;11.152;2023-04-24T15:21:17;16.40;99.90
14769;DHT22;7476;49.404;11.152;2023-04-24T15:23:43;16.60;99.90
14769;DHT22;7476;49.404;11.152;2023-04-24T15:26:10;16.80;99.90
14769;DHT22;7476;49.404;11.152;2023-04-24T15:28:38;16.60;99.90
14769;DHT22;7476;49.404;11.152;2023-04-24T15:31:04;16.20;99.90
14769;DHT22;7476;49.404;11.152;2023-04-24T15:33:31;16.10;99.90
14769;DHT22;7476;49.404;11.152;2023-04-24T15:35:58;16.40;99.90
14769;DHT22;7476;49.404;11.152;2023-04-24T15:38:25;15.50;99.90
14769;DHT22;7476;49.404;11.152;2023-04-24T15:40:51;15.20;99.90